createdAt,value
2018-05-16T00:01:04.521Z,4.53
2018-05-16T00:04:08.609Z,5.10
2018-05-16T00:07:11.916Z,5.40
2018-05-16T00:10:15.251Z,5.30
2018-05-16T00:13:19.344Z,5.40
2018-05-16T00:16:23.433Z,5.80
2018-05-16T00:19:26.732Z,4.70
2018-05-16T00:22:30.057Z,5.10
2018-05-16T00:25:33.357Z,5.47
2018-05-16T00:28:36.677Z,5.13
2018-05-16T00:31:39.978Z,5.67
2018-05-16T00:34:43.309Z,5.43
2018-05-16T00:37:46.610Z,5.43
2018-05-16T00:40:49.925Z,5.80
2018-05-16T00:43:53.236Z,5.57
2018-05-16T00:46:56.558Z,5.77
2018-05-16T00:49:59.852Z,5.47
2018-05-16T00:53:03.169Z,4.83
2018-05-16T00:56:06.473Z,5.93
2018-05-16T00:59:09.790Z,5.73
2018-05-16T01:02:13.102Z,6.13
2018-05-16T01:05:16.421Z,5.53
2018-05-16T01:08:20.494Z,6.43
2018-05-16T01:11:23.804Z,6.77
2018-05-16T01:14:27.145Z,7.00
2018-05-16T01:17:30.449Z,6.77
2018-05-16T01:20:33.765Z,7.47
2018-05-16T01:23:37.093Z,6.53
2018-05-16T01:26:40.399Z,6.80
2018-05-16T01:29:44.481Z,7.20
2018-05-16T01:32:48.554Z,6.67
2018-05-16T01:35:51.883Z,6.83
2018-05-16T01:38:55.193Z,6.60
2018-05-16T01:41:58.501Z,6.53
2018-05-16T01:45:01.797Z,7.33
2018-05-16T01:48:05.125Z,6.93
2018-05-16T01:51:08.424Z,7.10
2018-05-16T01:54:12.509Z,6.83
2018-05-16T01:57:15.809Z,6.47
2018-05-16T02:00:19.129Z,6.50
2018-05-16T02:03:23.201Z,6.23
2018-05-16T02:06:26.501Z,5.87
2018-05-16T02:09:29.818Z,6.03
2018-05-16T02:12:33.885Z,6.80
2018-05-16T02:15:37.193Z,6.60
2018-05-16T02:18:40.493Z,6.40
2018-05-16T02:21:43.801Z,6.17
2018-05-16T02:24:47.096Z,6.37
2018-05-16T02:27:50.405Z,5.83
2018-05-16T02:30:53.706Z,6.00
2018-05-16T02:33:57.013Z,6.53
2018-05-16T02:37:01.098Z,6.57
2018-05-16T02:40:04.405Z,7.03
2018-05-16T02:43:07.725Z,6.77
2018-05-16T02:46:11.794Z,7.13
2018-05-16T02:49:15.105Z,7.07
2018-05-16T02:52:18.423Z,7.13
2018-05-16T02:55:22.511Z,7.23
2018-05-16T02:58:25.828Z,7.00
2018-05-16T03:01:29.129Z,7.23
2018-05-16T03:04:33.202Z,7.47
2018-05-16T03:07:36.533Z,8.13
2018-05-16T03:10:39.833Z,7.37
2018-05-16T03:13:43.153Z,7.50
2018-05-16T03:16:46.452Z,8.17
2018-05-16T03:19:49.761Z,8.00
2018-05-16T03:22:53.110Z,7.50
2018-05-16T03:25:56.412Z,7.37
2018-05-16T03:28:59.721Z,8.00
2018-05-16T03:32:03.792Z,7.60
2018-05-16T03:35:07.138Z,8.27
2018-05-16T03:38:10.442Z,8.00
2018-05-16T03:41:13.758Z,7.80
2018-05-16T03:44:17.094Z,7.20
2018-05-16T03:47:20.401Z,7.47
2018-05-16T03:50:23.730Z,7.57
2018-05-16T03:53:27.040Z,8.00
2018-05-16T03:56:30.381Z,7.93
2018-05-16T03:59:51.294Z,7.73
2018-05-16T04:03:12.325Z,8.20
2018-05-16T04:06:16.397Z,7.77
2018-05-16T04:09:19.721Z,8.10
2018-05-16T04:12:23.029Z,8.03
2018-05-16T04:15:27.137Z,8.27
2018-05-16T04:18:30.453Z,8.10
2018-05-16T04:21:34.545Z,8.50
2018-05-16T04:24:37.853Z,8.20
2018-05-16T04:27:41.941Z,8.57
2018-05-16T04:30:45.250Z,7.90
2018-05-16T04:33:48.573Z,8.40
2018-05-16T04:36:52.653Z,7.77
2018-05-16T04:39:55.973Z,8.17
2018-05-16T04:43:00.045Z,8.40
2018-05-16T04:46:03.377Z,7.67
2018-05-16T04:49:06.689Z,8.53
2018-05-16T04:52:10.033Z,8.23
2018-05-16T04:55:13.349Z,8.73
2018-05-16T04:58:16.669Z,8.97
2018-05-16T05:01:20.778Z,9.03
2018-05-16T05:04:24.143Z,9.30
2018-05-16T05:07:28.181Z,9.57
2018-05-16T05:10:31.492Z,9.70
2018-05-16T05:13:34.821Z,9.73
2018-05-16T05:16:38.124Z,9.90
2018-05-16T05:19:41.457Z,9.50
2018-05-16T05:22:44.760Z,9.80
2018-05-16T05:25:48.080Z,9.20
2018-05-16T05:28:51.384Z,9.83
2018-05-16T05:31:55.473Z,9.20
2018-05-16T05:34:58.777Z,9.50
2018-05-16T05:38:02.098Z,9.00
2018-05-16T05:41:05.381Z,8.07
2018-05-16T05:44:08.713Z,7.77
2018-05-16T05:47:12.050Z,8.10
2018-05-16T05:50:15.351Z,7.83
2018-05-16T05:53:18.671Z,8.40
2018-05-16T05:56:22.761Z,8.43
2018-05-16T05:59:26.070Z,8.37
2018-05-16T06:02:29.389Z,7.77
2018-05-16T06:05:32.717Z,8.40
2018-05-16T06:08:36.017Z,8.83
2018-05-16T06:11:39.333Z,8.53
2018-05-16T06:14:42.641Z,8.67
2018-05-16T06:17:45.981Z,8.30
2018-05-16T06:20:49.285Z,7.80
2018-05-16T06:23:52.625Z,8.13
2018-05-16T06:26:55.935Z,7.87
2018-05-16T06:29:59.253Z,8.67
2018-05-16T06:33:03.336Z,8.80
2018-05-16T06:36:06.648Z,7.63
2018-05-16T06:39:10.801Z,8.00
2018-05-16T06:42:14.054Z,7.90
2018-05-16T06:45:17.381Z,9.03
2018-05-16T06:48:20.745Z,8.40
2018-05-16T06:51:24.037Z,7.57
2018-05-16T06:54:27.345Z,8.60
2018-05-16T06:57:31.449Z,9.10
2018-05-16T07:00:34.759Z,8.03
2018-05-16T07:03:38.853Z,9.97
2018-05-16T07:06:42.162Z,9.60
2018-05-16T07:09:45.485Z,10.13
2018-05-16T07:12:48.796Z,10.20
2018-05-16T07:15:52.117Z,9.70
2018-05-16T07:18:55.473Z,9.73
2018-05-16T07:21:59.557Z,9.60
2018-05-16T07:25:02.877Z,9.87
2018-05-16T07:28:06.975Z,8.70
2018-05-16T07:31:10.289Z,8.93
2018-05-16T07:34:14.376Z,8.50
2018-05-16T07:37:17.681Z,8.97
2018-05-16T07:40:21.018Z,8.63
2018-05-16T07:43:24.322Z,7.37
2018-05-16T07:46:27.638Z,7.80
2018-05-16T07:49:30.969Z,7.93
2018-05-16T07:52:34.280Z,8.30
2018-05-16T07:55:38.465Z,7.73
2018-05-16T07:58:41.765Z,6.97
2018-05-16T08:01:45.084Z,7.30
2018-05-16T08:04:49.158Z,6.63
2018-05-16T08:07:52.492Z,7.00
2018-05-16T08:10:55.797Z,6.20
2018-05-16T08:13:59.895Z,5.97
2018-05-16T08:17:03.263Z,5.93
2018-05-16T08:20:06.545Z,5.87
2018-05-16T08:23:09.845Z,6.23
2018-05-16T08:26:13.139Z,5.83
2018-05-16T08:29:16.477Z,5.70
2018-05-16T08:32:19.790Z,5.43
2018-05-16T08:35:23.885Z,4.83
2018-05-16T08:38:27.193Z,5.10
2018-05-16T08:41:30.522Z,4.80
2018-05-16T08:44:33.827Z,4.50
2018-05-16T08:47:37.150Z,4.67
2018-05-16T08:50:40.485Z,4.50
2018-05-16T08:53:44.558Z,4.50
2018-05-16T08:56:47.908Z,5.80
2018-05-16T08:59:51.982Z,4.80
2018-05-16T09:02:55.318Z,5.10
2018-05-16T09:05:59.388Z,5.57
2018-05-16T09:09:02.721Z,5.43
2018-05-16T09:12:06.033Z,5.23
2018-05-16T09:15:09.363Z,4.30
2018-05-16T09:18:12.665Z,4.60
2018-05-16T09:21:15.984Z,4.27
2018-05-16T09:24:19.301Z,5.30
2018-05-16T09:27:23.386Z,4.60
2018-05-16T09:30:26.698Z,4.33
2018-05-16T09:33:30.021Z,5.00
2018-05-16T09:36:34.094Z,5.50
2018-05-16T09:39:37.421Z,5.67
2018-05-16T09:42:41.497Z,6.50
2018-05-16T09:45:44.929Z,6.43
2018-05-16T09:48:48.909Z,5.93
2018-05-16T09:51:52.224Z,6.53
2018-05-16T09:54:55.533Z,6.37
2018-05-16T09:57:59.633Z,6.70
2018-05-16T10:01:02.949Z,6.80
2018-05-16T10:04:07.027Z,6.80
2018-05-16T10:07:10.349Z,6.53
2018-05-16T10:10:13.658Z,6.70
2018-05-16T10:13:17.756Z,6.37
2018-05-16T10:16:21.061Z,5.87
2018-05-16T10:19:24.383Z,6.43
2018-05-16T10:22:27.698Z,5.50
2018-05-16T10:25:31.083Z,5.87
2018-05-16T10:28:34.344Z,5.10
2018-05-16T10:31:37.653Z,5.37
2018-05-16T10:34:41.721Z,4.77
2018-05-16T10:37:45.044Z,5.63
2018-05-16T10:40:48.350Z,5.23
2018-05-16T10:43:51.684Z,5.13
2018-05-16T10:46:54.985Z,5.70
2018-05-16T10:49:58.301Z,4.80
2018-05-16T10:53:01.605Z,7.93
2018-05-16T10:56:04.942Z,5.47
2018-05-16T10:59:09.005Z,5.27
2018-05-16T11:02:12.345Z,5.00
2018-05-16T11:05:15.667Z,4.40
2018-05-16T11:08:19.432Z,5.07
2018-05-16T11:11:22.733Z,4.40
2018-05-16T11:14:26.077Z,5.60
2018-05-16T11:17:29.377Z,4.20
2018-05-16T11:20:32.697Z,4.77
2018-05-16T11:23:36.005Z,4.93
2018-05-16T11:26:39.316Z,4.83
2018-05-16T11:29:42.628Z,4.40
2018-05-16T11:32:45.966Z,4.87
2018-05-16T11:35:49.263Z,3.93
2018-05-16T11:38:52.686Z,4.30
2018-05-16T11:41:55.993Z,4.10
2018-05-16T11:44:59.321Z,4.37
2018-05-16T11:48:03.353Z,4.40
2018-05-16T11:51:06.717Z,5.57
2018-05-16T11:54:10.017Z,3.37
2018-05-16T11:57:14.109Z,4.17
2018-05-16T12:00:17.414Z,3.20
2018-05-16T12:03:20.744Z,3.23
2018-05-16T12:06:24.821Z,3.07
2018-05-16T12:09:28.152Z,4.03
2018-05-16T12:12:31.450Z,3.30
2018-05-16T12:15:35.545Z,3.20
2018-05-16T12:18:38.853Z,3.40
2018-05-16T12:21:42.939Z,2.97
2018-05-16T12:24:46.219Z,3.00
2018-05-16T12:27:49.589Z,2.73
2018-05-16T12:30:52.889Z,3.13
2018-05-16T12:33:56.278Z,2.60
2018-05-16T12:36:59.582Z,3.03
2018-05-16T12:40:02.901Z,2.60
2018-05-16T12:43:17.922Z,3.13
2018-05-16T12:46:21.257Z,3.20
2018-05-16T12:49:24.574Z,3.73
2018-05-16T12:52:27.868Z,3.10
2018-05-16T12:55:31.208Z,3.67
2018-05-16T12:58:35.291Z,3.27
2018-05-16T13:01:38.708Z,2.83
2018-05-16T13:04:41.948Z,2.60
2018-05-16T13:07:45.279Z,2.93
2018-05-16T13:10:48.590Z,2.67
2018-05-16T13:13:51.922Z,2.63
2018-05-16T13:16:55.220Z,2.77
2018-05-16T13:19:58.537Z,3.13
2018-05-16T13:23:01.837Z,3.37
2018-05-16T13:26:05.157Z,3.30
2018-05-16T13:29:08.470Z,4.07
2018-05-16T13:32:11.817Z,3.50
2018-05-16T13:35:15.121Z,3.10
2018-05-16T13:38:18.438Z,3.40
2018-05-16T13:41:21.788Z,3.27
2018-05-16T13:44:25.096Z,4.03
2018-05-16T13:47:28.427Z,3.30
2018-05-16T13:50:31.734Z,3.30
2018-05-16T13:53:35.084Z,3.10
2018-05-16T13:56:39.180Z,4.40
2018-05-16T13:59:43.261Z,4.37
2018-05-16T14:02:46.594Z,4.30
2018-05-16T14:05:50.668Z,3.93
2018-05-16T14:08:53.994Z,4.63
2018-05-16T14:11:58.097Z,4.00
2018-05-16T14:15:01.410Z,3.67
2018-05-16T14:18:04.734Z,3.80
2018-05-16T14:21:08.042Z,4.07
2018-05-16T14:24:11.365Z,3.63
2018-05-16T14:27:14.673Z,3.37
2018-05-16T14:30:18.002Z,3.30
2018-05-16T14:33:21.325Z,3.07
2018-05-16T14:36:24.649Z,3.63
2018-05-16T14:39:27.963Z,3.27
2018-05-16T14:42:31.292Z,3.53
2018-05-16T14:45:35.364Z,3.70
2018-05-16T14:48:38.706Z,3.67
2018-05-16T14:51:42.020Z,3.70
2018-05-16T14:54:45.368Z,4.30
2018-05-16T14:57:48.685Z,5.30
2018-05-16T15:00:52.866Z,5.27
2018-05-16T15:03:56.172Z,5.33
2018-05-16T15:06:59.489Z,5.03
2018-05-16T15:10:03.563Z,4.67
2018-05-16T15:13:06.886Z,5.00
2018-05-16T15:16:10.205Z,4.93
2018-05-16T15:19:14.318Z,4.87
2018-05-16T15:22:18.397Z,4.90
2018-05-16T15:25:21.818Z,5.10
2018-05-16T15:28:25.136Z,5.33
2018-05-16T15:31:28.430Z,5.17
2018-05-16T15:34:31.765Z,4.67
2018-05-16T15:37:35.115Z,4.97
2018-05-16T15:40:39.191Z,4.70
2018-05-16T15:43:42.501Z,4.63
2018-05-16T15:46:45.856Z,4.33
2018-05-16T15:49:49.918Z,3.77
2018-05-16T15:52:53.229Z,4.07
2018-05-16T15:55:57.344Z,3.80
2018-05-16T15:59:01.429Z,3.50
2018-05-16T16:02:04.774Z,3.07
2018-05-16T16:05:08.081Z,3.00
2018-05-16T16:08:11.410Z,3.17
2018-05-16T16:11:14.717Z,3.37
2018-05-16T16:14:18.041Z,3.50
2018-05-16T16:17:22.113Z,2.93
2018-05-16T16:20:25.444Z,3.13
2018-05-16T16:23:28.744Z,3.30
2018-05-16T16:26:32.078Z,2.80
2018-05-16T16:29:35.389Z,2.70
2018-05-16T16:32:38.733Z,3.10
2018-05-16T16:35:42.042Z,2.77
2018-05-16T16:38:46.223Z,3.30
2018-05-16T16:41:50.249Z,3.70
2018-05-16T16:44:53.635Z,3.00
2018-05-16T16:47:57.643Z,3.10
2018-05-16T16:51:00.949Z,3.00
2018-05-16T16:54:04.286Z,2.83
2018-05-16T16:57:07.622Z,3.37
2018-05-16T17:00:11.027Z,2.67
2018-05-16T17:03:14.249Z,2.00
2018-05-16T17:06:17.570Z,2.80
2018-05-16T17:09:21.645Z,2.60
2018-05-16T17:12:25.060Z,2.73
2018-05-16T17:15:29.150Z,2.70
2018-05-16T17:18:32.517Z,3.63
2018-05-16T17:21:35.835Z,2.97
2018-05-16T17:24:39.161Z,2.80
2018-05-16T17:27:42.476Z,2.73
2018-05-16T17:30:46.582Z,2.27
2018-05-16T17:33:50.662Z,2.77
2018-05-16T17:36:53.981Z,3.13
2018-05-16T17:39:57.293Z,2.37
2018-05-16T17:43:01.386Z,2.93
2018-05-16T17:46:04.746Z,3.40
2018-05-16T17:49:08.792Z,2.77
2018-05-16T17:52:12.096Z,2.87
2018-05-16T17:55:15.421Z,2.63
2018-05-16T17:58:18.738Z,3.00
2018-05-16T18:01:22.049Z,2.63
2018-05-16T18:04:25.377Z,3.13
2018-05-16T18:07:28.681Z,4.80
2018-05-16T18:10:32.024Z,8.90
2018-05-16T18:17:28.424Z,3.27
2018-05-16T18:20:31.726Z,2.63
2018-05-16T18:23:35.049Z,3.20
2018-05-16T18:26:38.348Z,3.40
2018-05-16T18:29:42.449Z,4.00
2018-05-16T18:32:45.749Z,4.27
2018-05-16T18:35:49.071Z,4.00
2018-05-16T18:38:52.377Z,4.20
2018-05-16T18:41:55.705Z,4.40
2018-05-16T18:44:59.004Z,3.77
2018-05-16T18:48:02.317Z,4.37
2018-05-16T18:51:05.629Z,4.50
2018-05-16T18:54:08.957Z,4.93
2018-05-16T18:57:12.265Z,4.47
2018-05-16T19:00:15.601Z,4.27
2018-05-16T19:03:18.904Z,3.97
2018-05-16T19:06:22.230Z,4.30
2018-05-16T19:09:25.553Z,4.10
2018-05-16T19:12:28.868Z,3.90
2018-05-16T19:15:32.169Z,3.80
2018-05-16T19:18:35.506Z,3.97
2018-05-16T19:21:39.585Z,4.00
2018-05-16T19:24:42.911Z,3.93
2018-05-16T19:27:46.981Z,4.03
2018-05-16T19:30:50.337Z,4.10
2018-05-16T19:33:54.408Z,3.27
2018-05-16T19:36:57.733Z,3.93
2018-05-16T19:40:01.263Z,3.77
2018-05-16T19:43:04.595Z,4.23
2018-05-16T19:46:07.988Z,4.33
2018-05-16T19:49:11.257Z,4.07
2018-05-16T19:52:14.560Z,4.23
2018-05-16T19:55:17.868Z,3.80
2018-05-16T19:58:21.176Z,5.17
2018-05-16T20:01:24.485Z,4.07
2018-05-16T20:04:27.784Z,4.73
2018-05-16T20:07:31.109Z,3.97
2018-05-16T20:10:35.181Z,4.17
2018-05-16T20:13:38.494Z,4.37
2018-05-16T20:16:41.808Z,4.60
2018-05-16T20:19:45.110Z,4.10
2018-05-16T20:22:49.185Z,4.80
2018-05-16T20:25:52.496Z,5.13
2018-05-16T20:28:55.814Z,3.90
2018-05-16T20:31:59.124Z,4.33
2018-05-16T20:35:03.224Z,3.80
2018-05-16T20:38:07.289Z,4.23
2018-05-16T20:41:10.614Z,4.60
2018-05-16T20:44:13.918Z,4.73
2018-05-16T20:47:17.257Z,4.23
2018-05-16T20:50:20.561Z,4.03
2018-05-16T20:53:23.868Z,4.33
2018-05-16T20:56:27.205Z,5.23
2018-05-16T20:59:30.514Z,4.67
2018-05-16T21:02:34.610Z,4.47
2018-05-16T21:05:37.917Z,5.67
2018-05-16T21:08:41.240Z,4.80
2018-05-16T21:11:45.305Z,4.33
2018-05-16T21:14:48.681Z,4.97
2018-05-16T21:17:51.960Z,4.60
2018-05-16T21:20:56.162Z,4.13
2018-05-16T21:24:00.233Z,4.80
2018-05-16T21:27:03.542Z,3.77
2018-05-16T21:30:06.869Z,4.20
2018-05-16T21:33:10.941Z,4.63
2018-05-16T21:36:14.254Z,3.93
2018-05-16T21:39:17.539Z,4.50
2018-05-16T21:42:21.639Z,5.07
2018-05-16T21:45:25.717Z,5.37
2018-05-16T21:48:29.022Z,4.33
2018-05-16T21:51:32.340Z,5.00
2018-05-16T21:54:35.645Z,4.20
2018-05-16T21:57:38.965Z,4.23
2018-05-16T22:00:42.272Z,4.00
2018-05-16T22:03:45.585Z,5.40
2018-05-16T22:06:49.656Z,5.33
2018-05-16T22:09:52.993Z,4.90
2018-05-16T22:12:56.292Z,5.40
2018-05-16T22:16:00.386Z,5.57
2018-05-16T22:19:03.685Z,5.73
2018-05-16T22:22:07.012Z,5.23
2018-05-16T22:25:10.311Z,7.07
2018-05-16T22:28:13.638Z,5.73
2018-05-16T22:31:22.493Z,6.50
2018-05-16T22:34:31.293Z,4.90
2018-05-16T22:37:40.088Z,6.87
2018-05-16T22:40:48.812Z,5.97
2018-05-16T22:43:52.941Z,6.13
2018-05-16T22:46:56.244Z,6.87
2018-05-16T22:49:59.584Z,5.67
2018-05-16T22:53:02.892Z,6.70
2018-05-16T22:56:06.970Z,6.83
2018-05-16T22:59:10.268Z,6.13
2018-05-16T23:02:13.590Z,7.27
2018-05-16T23:05:16.888Z,7.13
2018-05-16T23:08:20.202Z,6.63
2018-05-16T23:11:24.272Z,6.30
2018-05-16T23:14:27.595Z,7.10
2018-05-16T23:17:31.670Z,6.07
2018-05-16T23:20:34.987Z,7.03
2018-05-16T23:23:38.258Z,5.80
2018-05-16T23:26:41.622Z,6.73
2018-05-16T23:29:44.929Z,6.00
2018-05-16T23:32:48.250Z,6.23
2018-05-16T23:35:51.554Z,7.10
2018-05-16T23:38:54.877Z,5.90
2018-05-16T23:41:58.186Z,7.23
2018-05-16T23:45:02.288Z,6.80
2018-05-16T23:48:05.592Z,5.90
2018-05-16T23:51:09.696Z,6.53
2018-05-16T23:54:12.996Z,6.90
2018-05-16T23:57:16.321Z,5.87
